sensor_id;sensor_type;location;lat;lon;timestamp;P1;durP1;ratioP1;P2;durP2;ratioP2
45338;SDS011;31071;51.478;5.710;2023-03-23T06:24:02;14.30;;;3.65;;
45338;SDS011;31071;51.478;5.710;2023-03-23T06:40:31;9.52;;;2.90;;
45338;SDS011;31071;51.478;5.710;2023-03-23T06:43:03;15.63;;;3.15;;
45338;SDS011;31071;51.478;5.710;2023-03-23T06:45:29;9.48;;;2.80;;
45338;SDS011;31071;51.478;5.710;2023-03-23T06:47:56;9.85;;;2.58;;
45338;SDS011;31071;51.478;5.710;2023-03-23T06:50:22;9.57;;;2.30;;
45338;SDS011;31071;51.478;5.710;2023-03-23T06:52:48;8.88;;;3.03;;
45338;SDS011;31071;51.478;5.710;2023-03-23T06:55:25;8.85;;;2.40;;
45338;SDS011;31071;51.478;5.710;2023-03-23T06:57:51;7.00;;;2.22;;
45338;SDS011;31071;51.478;5.710;2023-03-23T07:02:47;8.40;;;2.40;;
45338;SDS011;31071;51.478;5.710;2023-03-23T07:05:31;7.28;;;1.75;;
45338;SDS011;31071;51.478;5.710;2023-03-23T07:08:40;7.15;;;2.42;;
45338;SDS011;31071;51.478;5.710;2023-03-23T07:11:11;8.18;;;2.22;;
45338;SDS011;31071;51.478;5.710;2023-03-23T07:13:44;7.40;;;3.20;;
45338;SDS011;31071;51.478;5.710;2023-03-23T07:16:11;8.27;;;2.30;;
45338;SDS011;31071;51.478;5.710;2023-03-23T07:18:40;7.93;;;2.55;;
45338;SDS011;31071;51.478;5.710;2023-03-23T07:21:30;8.13;;;2.60;;
45338;SDS011;31071;51.478;5.710;2023-03-23T07:23:56;6.18;;;2.67;;
45338;SDS011;31071;51.478;5.710;2023-03-23T07:26:21;8.38;;;2.22;;
45338;SDS011;31071;51.478;5.710;2023-03-23T07:28:47;5.25;;;2.40;;
45338;SDS011;31071;51.478;5.710;2023-03-23T07:31:12;8.73;;;2.25;;
45338;SDS011;31071;51.478;5.710;2023-03-23T07:33:38;10.75;;;3.30;;
45338;SDS011;31071;51.478;5.710;2023-03-23T07:36:04;7.68;;;2.20;;
45338;SDS011;31071;51.478;5.710;2023-03-23T07:38:31;6.03;;;2.50;;
45338;SDS011;31071;51.478;5.710;2023-03-23T07:40:56;6.13;;;2.70;;
45338;SDS011;31071;51.478;5.710;2023-03-23T07:43:23;7.18;;;2.60;;
45338;SDS011;31071;51.478;5.710;2023-03-23T07:45:49;9.52;;;2.53;;
45338;SDS011;31071;51.478;5.710;2023-03-23T07:48:14;7.63;;;2.40;;
45338;SDS011;31071;51.478;5.710;2023-03-23T07:50:40;9.52;;;2.90;;
45338;SDS011;31071;51.478;5.710;2023-03-23T07:53:06;9.48;;;3.38;;
45338;SDS011;31071;51.478;5.710;2023-03-23T07:55:32;6.78;;;2.63;;
45338;SDS011;31071;51.478;5.710;2023-03-23T07:57:58;13.68;;;3.67;;
45338;SDS011;31071;51.478;5.710;2023-03-23T08:00:24;19.17;;;4.85;;
45338;SDS011;31071;51.478;5.710;2023-03-23T08:02:50;10.40;;;2.80;;
45338;SDS011;31071;51.478;5.710;2023-03-23T08:05:18;4.30;;;1.55;;
45338;SDS011;31071;51.478;5.710;2023-03-23T08:07:45;5.05;;;1.45;;
45338;SDS011;31071;51.478;5.710;2023-03-23T08:10:12;4.38;;;1.50;;
45338;SDS011;31071;51.478;5.710;2023-03-23T08:12:40;9.00;;;2.60;;
45338;SDS011;31071;51.478;5.710;2023-03-23T08:15:07;4.35;;;1.23;;
45338;SDS011;31071;51.478;5.710;2023-03-23T08:17:34;6.32;;;1.67;;
45338;SDS011;31071;51.478;5.710;2023-03-23T08:20:01;6.05;;;1.48;;
45338;SDS011;31071;51.478;5.710;2023-03-23T08:22:33;4.32;;;1.50;;
45338;SDS011;31071;51.478;5.710;2023-03-23T08:25:01;4.32;;;1.38;;
45338;SDS011;31071;51.478;5.710;2023-03-23T08:27:28;8.75;;;1.73;;
45338;SDS011;31071;51.478;5.710;2023-03-23T08:29:54;6.82;;;1.33;;
45338;SDS011;31071;51.478;5.710;2023-03-23T08:32:19;3.42;;;1.40;;
45338;SDS011;31071;51.478;5.710;2023-03-23T08:34:45;3.63;;;1.70;;
45338;SDS011;31071;51.478;5.710;2023-03-23T08:37:10;6.20;;;2.17;;
45338;SDS011;31071;51.478;5.710;2023-03-23T08:39:36;4.43;;;1.75;;
45338;SDS011;31071;51.478;5.710;2023-03-23T08:42:02;8.32;;;3.72;;
45338;SDS011;31071;51.478;5.710;2023-03-23T08:44:28;3.25;;;1.27;;
45338;SDS011;31071;51.478;5.710;2023-03-23T08:46:54;5.00;;;1.73;;
45338;SDS011;31071;51.478;5.710;2023-03-23T08:49:22;4.72;;;1.40;;
45338;SDS011;31071;51.478;5.710;2023-03-23T08:51:48;3.60;;;1.17;;
45338;SDS011;31071;51.478;5.710;2023-03-23T08:54:13;5.15;;;1.20;;
45338;SDS011;31071;51.478;5.710;2023-03-23T08:56:39;5.03;;;1.35;;
45338;SDS011;31071;51.478;5.710;2023-03-23T08:59:05;4.13;;;1.00;;
45338;SDS011;31071;51.478;5.710;2023-03-23T09:01:32;2.28;;;1.00;;
45338;SDS011;31071;51.478;5.710;2023-03-23T09:03:58;5.22;;;1.20;;
45338;SDS011;31071;51.478;5.710;2023-03-23T09:06:24;5.57;;;1.83;;
45338;SDS011;31071;51.478;5.710;2023-03-23T09:08:50;4.88;;;1.70;;
45338;SDS011;31071;51.478;5.710;2023-03-23T09:11:15;6.75;;;1.48;;
45338;SDS011;31071;51.478;5.710;2023-03-23T09:13:41;4.15;;;1.20;;
45338;SDS011;31071;51.478;5.710;2023-03-23T09:16:07;6.95;;;1.40;;
45338;SDS011;31071;51.478;5.710;2023-03-23T09:18:33;6.20;;;1.45;;
45338;SDS011;31071;51.478;5.710;2023-03-23T09:21:00;3.03;;;1.33;;
45338;SDS011;31071;51.478;5.710;2023-03-23T09:23:26;4.15;;;1.40;;
45338;SDS011;31071;51.478;5.710;2023-03-23T09:25:52;4.78;;;1.40;;
45338;SDS011;31071;51.478;5.710;2023-03-23T09:28:18;2.92;;;1.10;;
45338;SDS011;31071;51.478;5.710;2023-03-23T09:30:44;3.90;;;1.17;;
45338;SDS011;31071;51.478;5.710;2023-03-23T09:33:11;4.63;;;1.27;;
45338;SDS011;31071;51.478;5.710;2023-03-23T09:35:37;3.60;;;1.35;;
45338;SDS011;31071;51.478;5.710;2023-03-23T09:38:03;8.27;;;2.25;;
45338;SDS011;31071;51.478;5.710;2023-03-23T09:43:40;4.90;;;1.10;;
45338;SDS011;31071;51.478;5.710;2023-03-23T09:46:30;4.13;;;1.23;;
45338;SDS011;31071;51.478;5.710;2023-03-23T09:51:54;3.60;;;1.00;;
45338;SDS011;31071;51.478;5.710;2023-03-23T09:56:53;2.35;;;0.80;;
45338;SDS011;31071;51.478;5.710;2023-03-23T09:59:41;5.45;;;1.25;;
45338;SDS011;31071;51.478;5.710;2023-03-23T10:04:49;3.42;;;1.10;;
45338;SDS011;31071;51.478;5.710;2023-03-23T10:07:18;7.05;;;1.77;;
45338;SDS011;31071;51.478;5.710;2023-03-23T10:09:47;6.03;;;1.50;;
45338;SDS011;31071;51.478;5.710;2023-03-23T10:14:58;3.90;;;1.25;;
45338;SDS011;31071;51.478;5.710;2023-03-23T10:17:46;5.20;;;1.55;;
45338;SDS011;31071;51.478;5.710;2023-03-23T10:20:37;5.10;;;1.60;;
45338;SDS011;31071;51.478;5.710;2023-03-23T10:32:02;6.70;;;1.92;;
45338;SDS011;31071;51.478;5.710;2023-03-23T10:34:56;5.18;;;1.27;;
45338;SDS011;31071;51.478;5.710;2023-03-23T10:37:28;5.22;;;1.50;;
45338;SDS011;31071;51.478;5.710;2023-03-23T10:39:59;8.77;;;1.65;;
45338;SDS011;31071;51.478;5.710;2023-03-23T10:42:29;4.47;;;1.65;;
45338;SDS011;31071;51.478;5.710;2023-03-23T10:45:13;5.50;;;1.40;;
45338;SDS011;31071;51.478;5.710;2023-03-23T10:47:41;3.83;;;1.30;;
45338;SDS011;31071;51.478;5.710;2023-03-23T10:50:15;4.50;;;1.98;;
45338;SDS011;31071;51.478;5.710;2023-03-23T10:52:43;4.47;;;1.42;;
45338;SDS011;31071;51.478;5.710;2023-03-23T10:57:41;4.72;;;1.83;;
45338;SDS011;31071;51.478;5.710;2023-03-23T11:00:19;6.90;;;1.98;;
45338;SDS011;31071;51.478;5.710;2023-03-23T11:02:47;2.33;;;1.27;;
45338;SDS011;31071;51.478;5.710;2023-03-23T11:05:25;5.18;;;1.38;;
45338;SDS011;31071;51.478;5.710;2023-03-23T11:07:59;7.05;;;2.13;;
45338;SDS011;31071;51.478;5.710;2023-03-23T11:10:36;7.68;;;1.67;;
45338;SDS011;31071;51.478;5.710;2023-03-23T11:13:03;3.67;;;1.30;;
45338;SDS011;31071;51.478;5.710;2023-03-23T11:15:39;4.30;;;1.60;;
45338;SDS011;31071;51.478;5.710;2023-03-23T11:18:10;6.80;;;1.83;;
45338;SDS011;31071;51.478;5.710;2023-03-23T11:20:39;4.35;;;1.73;;
45338;SDS011;31071;51.478;5.710;2023-03-23T11:23:07;4.60;;;1.60;;
45338;SDS011;31071;51.478;5.710;2023-03-23T11:25:51;5.63;;;1.60;;
45338;SDS011;31071;51.478;5.710;2023-03-23T11:28:25;3.03;;;1.38;;
45338;SDS011;31071;51.478;5.710;2023-03-23T11:30:54;4.95;;;1.63;;
45338;SDS011;31071;51.478;5.710;2023-03-23T11:33:22;3.83;;;1.38;;
45338;SDS011;31071;51.478;5.710;2023-03-23T11:35:50;4.47;;;1.50;;
45338;SDS011;31071;51.478;5.710;2023-03-23T11:38:18;3.97;;;1.45;;
45338;SDS011;31071;51.478;5.710;2023-03-23T11:40:47;3.47;;;1.58;;
45338;SDS011;31071;51.478;5.710;2023-03-23T11:43:19;6.43;;;1.80;;
45338;SDS011;31071;51.478;5.710;2023-03-23T11:45:57;5.13;;;1.63;;
45338;SDS011;31071;51.478;5.710;2023-03-23T11:48:28;7.75;;;2.65;;
45338;SDS011;31071;51.478;5.710;2023-03-23T11:51:13;6.00;;;1.48;;
45338;SDS011;31071;51.478;5.710;2023-03-23T11:54:17;3.97;;;1.60;;
45338;SDS011;31071;51.478;5.710;2023-03-23T11:56:58;4.35;;;1.40;;
45338;SDS011;31071;51.478;5.710;2023-03-23T11:59:28;3.55;;;1.48;;
45338;SDS011;31071;51.478;5.710;2023-03-23T12:02:06;6.40;;;1.35;;
45338;SDS011;31071;51.478;5.710;2023-03-23T12:08:03;4.50;;;1.42;;
45338;SDS011;31071;51.478;5.710;2023-03-23T12:19:21;6.43;;;1.88;;
45338;SDS011;31071;51.478;5.710;2023-03-23T12:25:09;6.00;;;1.77;;
45338;SDS011;31071;51.478;5.710;2023-03-23T12:28:15;4.68;;;1.90;;
45338;SDS011;31071;51.478;5.710;2023-03-23T12:33:39;8.30;;;1.77;;
45338;SDS011;31071;51.478;5.710;2023-03-23T12:36:19;7.65;;;1.60;;
45338;SDS011;31071;51.478;5.710;2023-03-23T12:39:12;4.53;;;1.77;;
45338;SDS011;31071;51.478;5.710;2023-03-23T12:42:03;6.18;;;1.85;;
45338;SDS011;31071;51.478;5.710;2023-03-23T12:44:38;6.57;;;1.80;;
45338;SDS011;31071;51.478;5.710;2023-03-23T12:52:45;6.03;;;1.88;;
45338;SDS011;31071;51.478;5.710;2023-03-23T12:55:16;3.80;;;1.67;;
45338;SDS011;31071;51.478;5.710;2023-03-23T12:57:51;5.07;;;2.00;;
45338;SDS011;31071;51.478;5.710;2023-03-23T13:00:25;6.85;;;1.90;;
45338;SDS011;31071;51.478;5.710;2023-03-23T13:05:48;6.13;;;1.90;;
45338;SDS011;31071;51.478;5.710;2023-03-23T13:08:22;4.78;;;1.90;;
45338;SDS011;31071;51.478;5.710;2023-03-23T13:10:52;5.72;;;1.67;;
45338;SDS011;31071;51.478;5.710;2023-03-23T13:13:23;6.82;;;2.15;;
45338;SDS011;31071;51.478;5.710;2023-03-23T13:21:14;9.80;;;2.58;;
45338;SDS011;31071;51.478;5.710;2023-03-23T13:23:48;6.70;;;2.38;;
45338;SDS011;31071;51.478;5.710;2023-03-23T13:26:19;7.28;;;2.42;;
45338;SDS011;31071;51.478;5.710;2023-03-23T13:31:22;5.55;;;1.95;;
45338;SDS011;31071;51.478;5.710;2023-03-23T13:33:52;9.15;;;2.30;;
45338;SDS011;31071;51.478;5.710;2023-03-23T13:36:38;10.85;;;2.70;;
45338;SDS011;31071;51.478;5.710;2023-03-23T13:39:16;5.00;;;2.40;;
45338;SDS011;31071;51.478;5.710;2023-03-23T13:42:01;6.60;;;2.70;;
45338;SDS011;31071;51.478;5.710;2023-03-23T13:44:38;7.60;;;2.22;;
45338;SDS011;31071;51.478;5.710;2023-03-23T14:03:05;8.93;;;3.88;;
45338;SDS011;31071;51.478;5.710;2023-03-23T14:05:48;11.02;;;3.92;;
45338;SDS011;31071;51.478;5.710;2023-03-23T14:13:17;9.00;;;4.32;;
45338;SDS011;31071;51.478;5.710;2023-03-23T14:15:54;9.93;;;3.55;;
45338;SDS011;31071;51.478;5.710;2023-03-23T14:18:29;13.15;;;4.63;;
45338;SDS011;31071;51.478;5.710;2023-03-23T14:20:59;15.00;;;4.63;;
45338;SDS011;31071;51.478;5.710;2023-03-23T14:23:25;13.20;;;4.18;;
45338;SDS011;31071;51.478;5.710;2023-03-23T14:25:54;14.02;;;4.00;;
45338;SDS011;31071;51.478;5.710;2023-03-23T14:28:22;9.38;;;2.92;;
45338;SDS011;31071;51.478;5.710;2023-03-23T14:30:52;10.35;;;2.88;;
45338;SDS011;31071;51.478;5.710;2023-03-23T14:33:19;11.88;;;3.45;;
45338;SDS011;31071;51.478;5.710;2023-03-23T14:35:45;12.85;;;3.42;;
45338;SDS011;31071;51.478;5.710;2023-03-23T14:38:17;8.77;;;3.13;;
45338;SDS011;31071;51.478;5.710;2023-03-23T14:40:45;14.55;;;3.80;;
45338;SDS011;31071;51.478;5.710;2023-03-23T14:43:13;10.23;;;3.25;;
45338;SDS011;31071;51.478;5.710;2023-03-23T14:45:41;12.38;;;3.15;;
45338;SDS011;31071;51.478;5.710;2023-03-23T14:48:07;11.05;;;3.13;;
45338;SDS011;31071;51.478;5.710;2023-03-23T14:50:41;11.23;;;3.20;;
45338;SDS011;31071;51.478;5.710;2023-03-23T14:53:19;10.45;;;3.20;;
45338;SDS011;31071;51.478;5.710;2023-03-23T14:55:51;12.07;;;3.58;;
45338;SDS011;31071;51.478;5.710;2023-03-23T14:58:19;11.55;;;3.67;;
45338;SDS011;31071;51.478;5.710;2023-03-23T15:00:48;10.60;;;3.88;;
45338;SDS011;31071;51.478;5.710;2023-03-23T15:03:21;13.50;;;3.90;;
45338;SDS011;31071;51.478;5.710;2023-03-23T15:05:54;14.45;;;4.05;;
45338;SDS011;31071;51.478;5.710;2023-03-23T15:08:32;16.30;;;3.88;;
45338;SDS011;31071;51.478;5.710;2023-03-23T15:11:03;11.43;;;3.83;;
45338;SDS011;31071;51.478;5.710;2023-03-23T15:13:32;15.23;;;4.22;;
45338;SDS011;31071;51.478;5.710;2023-03-23T15:16:06;17.42;;;4.18;;
45338;SDS011;31071;51.478;5.710;2023-03-23T15:18:38;12.88;;;4.40;;
45338;SDS011;31071;51.478;5.710;2023-03-23T15:21:09;8.63;;;3.78;;
45338;SDS011;31071;51.478;5.710;2023-03-23T15:23:43;15.85;;;4.00;;
45338;SDS011;31071;51.478;5.710;2023-03-23T15:26:15;9.57;;;3.53;;
45338;SDS011;31071;51.478;5.710;2023-03-23T15:29:08;11.05;;;3.90;;
45338;SDS011;31071;51.478;5.710;2023-03-23T15:31:46;11.88;;;3.22;;
45338;SDS011;31071;51.478;5.710;2023-03-23T15:34:24;14.30;;;4.18;;
45338;SDS011;31071;51.478;5.710;2023-03-23T15:37:03;14.55;;;4.00;;
45338;SDS011;31071;51.478;5.710;2023-03-23T15:39:30;10.77;;;4.15;;
45338;SDS011;31071;51.478;5.710;2023-03-23T15:41:57;8.93;;;2.97;;
45338;SDS011;31071;51.478;5.710;2023-03-23T15:44:38;10.60;;;3.22;;
45338;SDS011;31071;51.478;5.710;2023-03-23T15:47:15;10.90;;;3.97;;
45338;SDS011;31071;51.478;5.710;2023-03-23T15:49:42;11.13;;;4.30;;
45338;SDS011;31071;51.478;5.710;2023-03-23T15:52:10;8.65;;;3.72;;
45338;SDS011;31071;51.478;5.710;2023-03-23T15:54:37;11.93;;;4.20;;
45338;SDS011;31071;51.478;5.710;2023-03-23T15:57:03;10.60;;;4.03;;
45338;SDS011;31071;51.478;5.710;2023-03-23T15:59:28;9.20;;;3.50;;
45338;SDS011;31071;51.478;5.710;2023-03-23T16:01:54;10.57;;;4.20;;
45338;SDS011;31071;51.478;5.710;2023-03-23T16:04:20;11.98;;;4.38;;
45338;SDS011;31071;51.478;5.710;2023-03-23T16:06:46;11.32;;;4.18;;
45338;SDS011;31071;51.478;5.710;2023-03-23T16:09:13;12.40;;;4.18;;
45338;SDS011;31071;51.478;5.710;2023-03-23T16:11:41;9.63;;;3.72;;
45338;SDS011;31071;51.478;5.710;2023-03-23T16:14:07;9.82;;;3.90;;
45338;SDS011;31071;51.478;5.710;2023-03-23T16:16:33;13.60;;;3.85;;
45338;SDS011;31071;51.478;5.710;2023-03-23T16:21:32;12.98;;;4.03;;
45338;SDS011;31071;51.478;5.710;2023-03-23T16:23:58;8.30;;;3.47;;
45338;SDS011;31071;51.478;5.710;2023-03-23T16:26:24;12.60;;;4.35;;
45338;SDS011;31071;51.478;5.710;2023-03-23T16:28:49;13.30;;;3.80;;
45338;SDS011;31071;51.478;5.710;2023-03-23T16:31:15;9.18;;;2.97;;
45338;SDS011;31071;51.478;5.710;2023-03-23T16:33:40;9.88;;;3.53;;
45338;SDS011;31071;51.478;5.710;2023-03-23T16:36:06;8.85;;;3.28;;
45338;SDS011;31071;51.478;5.710;2023-03-23T16:38:34;9.77;;;4.18;;
45338;SDS011;31071;51.478;5.710;2023-03-23T16:40:59;10.63;;;3.60;;
45338;SDS011;31071;51.478;5.710;2023-03-23T16:43:25;11.65;;;3.15;;
45338;SDS011;31071;51.478;5.710;2023-03-23T16:45:50;7.65;;;3.38;;
45338;SDS011;31071;51.478;5.710;2023-03-23T16:48:19;12.02;;;3.80;;
45338;SDS011;31071;51.478;5.710;2023-03-23T16:50:45;10.07;;;2.70;;
45338;SDS011;31071;51.478;5.710;2023-03-23T16:53:11;11.18;;;3.30;;
45338;SDS011;31071;51.478;5.710;2023-03-23T16:55:37;13.07;;;3.47;;
45338;SDS011;31071;51.478;5.710;2023-03-23T16:58:03;5.72;;;2.70;;
45338;SDS011;31071;51.478;5.710;2023-03-23T17:00:30;14.20;;;3.38;;
45338;SDS011;31071;51.478;5.710;2023-03-23T17:02:55;7.07;;;2.70;;
45338;SDS011;31071;51.478;5.710;2023-03-23T17:05:22;12.38;;;3.80;;
45338;SDS011;31071;51.478;5.710;2023-03-23T17:07:50;9.18;;;2.80;;
45338;SDS011;31071;51.478;5.710;2023-03-23T17:10:16;10.38;;;2.85;;
45338;SDS011;31071;51.478;5.710;2023-03-23T17:12:42;11.52;;;3.83;;
45338;SDS011;31071;51.478;5.710;2023-03-23T17:15:08;11.82;;;3.38;;
45338;SDS011;31071;51.478;5.710;2023-03-23T17:17:35;11.38;;;3.70;;
45338;SDS011;31071;51.478;5.710;2023-03-23T17:20:01;9.52;;;3.60;;
45338;SDS011;31071;51.478;5.710;2023-03-23T17:22:27;12.80;;;4.13;;
45338;SDS011;31071;51.478;5.710;2023-03-23T17:24:53;12.40;;;3.53;;
45338;SDS011;31071;51.478;5.710;2023-03-23T17:27:19;15.52;;;4.03;;
45338;SDS011;31071;51.478;5.710;2023-03-23T17:29:45;9.60;;;3.78;;
45338;SDS011;31071;51.478;5.710;2023-03-23T17:32:11;9.95;;;3.33;;
45338;SDS011;31071;51.478;5.710;2023-03-23T17:34:37;10.82;;;3.40;;
45338;SDS011;31071;51.478;5.710;2023-03-23T17:37:03;9.07;;;3.30;;
45338;SDS011;31071;51.478;5.710;2023-03-23T17:39:30;11.23;;;3.97;;
45338;SDS011;31071;51.478;5.710;2023-03-23T17:41:59;12.75;;;3.88;;
45338;SDS011;31071;51.478;5.710;2023-03-23T17:44:25;9.40;;;3.33;;
45338;SDS011;31071;51.478;5.710;2023-03-23T17:46:51;9.32;;;3.75;;
45338;SDS011;31071;51.478;5.710;2023-03-23T17:49:17;8.63;;;3.90;;
45338;SDS011;31071;51.478;5.710;2023-03-23T17:51:42;11.77;;;3.85;;
45338;SDS011;31071;51.478;5.710;2023-03-23T17:54:08;11.05;;;3.80;;
45338;SDS011;31071;51.478;5.710;2023-03-23T17:56:34;10.57;;;3.95;;
45338;SDS011;31071;51.478;5.710;2023-03-23T17:59:00;13.35;;;3.53;;
45338;SDS011;31071;51.478;5.710;2023-03-23T18:01:25;10.95;;;3.70;;
45338;SDS011;31071;51.478;5.710;2023-03-23T18:03:51;11.55;;;3.67;;
45338;SDS011;31071;51.478;5.710;2023-03-23T18:06:16;10.45;;;3.92;;
45338;SDS011;31071;51.478;5.710;2023-03-23T18:08:42;10.70;;;3.28;;
45338;SDS011;31071;51.478;5.710;2023-03-23T18:11:08;14.23;;;4.05;;
45338;SDS011;31071;51.478;5.710;2023-03-23T18:13:34;11.85;;;3.42;;
45338;SDS011;31071;51.478;5.710;2023-03-23T18:16:01;11.50;;;3.65;;
45338;SDS011;31071;51.478;5.710;2023-03-23T18:18:28;11.00;;;3.38;;
45338;SDS011;31071;51.478;5.710;2023-03-23T18:20:58;10.77;;;3.42;;
45338;SDS011;31071;51.478;5.710;2023-03-23T18:23:29;7.32;;;3.10;;
45338;SDS011;31071;51.478;5.710;2023-03-23T18:25:59;12.25;;;3.63;;
45338;SDS011;31071;51.478;5.710;2023-03-23T18:28:29;10.38;;;3.42;;
45338;SDS011;31071;51.478;5.710;2023-03-23T18:31:01;7.65;;;3.47;;
45338;SDS011;31071;51.478;5.710;2023-03-23T18:33:37;9.40;;;3.03;;
45338;SDS011;31071;51.478;5.710;2023-03-23T18:36:06;9.85;;;2.80;;
45338;SDS011;31071;51.478;5.710;2023-03-23T18:38:33;10.18;;;2.80;;
45338;SDS011;31071;51.478;5.710;2023-03-23T18:40:59;9.45;;;3.42;;
45338;SDS011;31071;51.478;5.710;2023-03-23T18:43:24;6.93;;;2.58;;
45338;SDS011;31071;51.478;5.710;2023-03-23T18:45:50;8.32;;;3.15;;
45338;SDS011;31071;51.478;5.710;2023-03-23T18:48:21;11.95;;;3.38;;
45338;SDS011;31071;51.478;5.710;2023-03-23T18:50:47;8.25;;;3.38;;
45338;SDS011;31071;51.478;5.710;2023-03-23T18:53:15;10.23;;;3.47;;
45338;SDS011;31071;51.478;5.710;2023-03-23T18:55:41;9.98;;;3.25;;
45338;SDS011;31071;51.478;5.710;2023-03-23T18:58:08;10.65;;;3.20;;
45338;SDS011;31071;51.478;5.710;2023-03-23T19:00:34;8.48;;;3.42;;
45338;SDS011;31071;51.478;5.710;2023-03-23T19:03:01;9.77;;;3.60;;
45338;SDS011;31071;51.478;5.710;2023-03-23T19:05:28;7.28;;;3.33;;
45338;SDS011;31071;51.478;5.710;2023-03-23T19:07:54;10.25;;;3.50;;
45338;SDS011;31071;51.478;5.710;2023-03-23T19:10:20;8.52;;;2.85;;
45338;SDS011;31071;51.478;5.710;2023-03-23T19:12:46;7.63;;;3.25;;
45338;SDS011;31071;51.478;5.710;2023-03-23T19:15:13;12.43;;;3.65;;
45338;SDS011;31071;51.478;5.710;2023-03-23T19:17:39;12.38;;;3.60;;
45338;SDS011;31071;51.478;5.710;2023-03-23T19:20:05;7.97;;;3.22;;
45338;SDS011;31071;51.478;5.710;2023-03-23T19:22:35;12.40;;;3.67;;
45338;SDS011;31071;51.478;5.710;2023-03-23T19:25:01;9.40;;;3.65;;
45338;SDS011;31071;51.478;5.710;2023-03-23T19:27:31;14.18;;;3.90;;
45338;SDS011;31071;51.478;5.710;2023-03-23T19:29:58;9.10;;;3.70;;
45338;SDS011;31071;51.478;5.710;2023-03-23T19:32:23;12.75;;;3.40;;
45338;SDS011;31071;51.478;5.710;2023-03-23T19:34:49;8.15;;;3.17;;
45338;SDS011;31071;51.478;5.710;2023-03-23T19:37:15;10.18;;;3.28;;
45338;SDS011;31071;51.478;5.710;2023-03-23T19:39:40;9.13;;;3.40;;
45338;SDS011;31071;51.478;5.710;2023-03-23T19:42:06;9.48;;;3.55;;
45338;SDS011;31071;51.478;5.710;2023-03-23T19:44:32;7.55;;;3.20;;
45338;SDS011;31071;51.478;5.710;2023-03-23T19:46:58;12.20;;;3.25;;
45338;SDS011;31071;51.478;5.710;2023-03-23T19:49:24;10.88;;;3.67;;
45338;SDS011;31071;51.478;5.710;2023-03-23T19:51:50;8.85;;;2.95;;
45338;SDS011;31071;51.478;5.710;2023-03-23T19:54:19;7.78;;;3.08;;
45338;SDS011;31071;51.478;5.710;2023-03-23T19:56:45;13.40;;;4.20;;
45338;SDS011;31071;51.478;5.710;2023-03-23T19:59:11;8.32;;;3.08;;
45338;SDS011;31071;51.478;5.710;2023-03-23T20:01:39;8.52;;;3.30;;
45338;SDS011;31071;51.478;5.710;2023-03-23T20:04:06;7.60;;;3.10;;
45338;SDS011;31071;51.478;5.710;2023-03-23T20:06:32;7.22;;;3.30;;
45338;SDS011;31071;51.478;5.710;2023-03-23T20:08:58;8.80;;;3.60;;
45338;SDS011;31071;51.478;5.710;2023-03-23T20:11:24;9.38;;;3.00;;
45338;SDS011;31071;51.478;5.710;2023-03-23T20:13:50;12.30;;;3.53;;
45338;SDS011;31071;51.478;5.710;2023-03-23T20:16:16;9.13;;;3.10;;
45338;SDS011;31071;51.478;5.710;2023-03-23T20:18:42;8.50;;;3.05;;
45338;SDS011;31071;51.478;5.710;2023-03-23T20:21:11;7.43;;;2.72;;
45338;SDS011;31071;51.478;5.710;2023-03-23T20:23:41;6.35;;;2.90;;
45338;SDS011;31071;51.478;5.710;2023-03-23T20:26:11;8.15;;;3.00;;
45338;SDS011;31071;51.478;5.710;2023-03-23T20:28:39;7.63;;;3.00;;
45338;SDS011;31071;51.478;5.710;2023-03-23T20:31:07;6.47;;;2.58;;
45338;SDS011;31071;51.478;5.710;2023-03-23T20:33:36;9.95;;;3.17;;
45338;SDS011;31071;51.478;5.710;2023-03-23T20:36:02;8.07;;;3.08;;
45338;SDS011;31071;51.478;5.710;2023-03-23T20:38:29;9.27;;;3.10;;
45338;SDS011;31071;51.478;5.710;2023-03-23T20:40:59;8.63;;;2.65;;
45338;SDS011;31071;51.478;5.710;2023-03-23T20:43:26;9.60;;;3.33;;
45338;SDS011;31071;51.478;5.710;2023-03-23T20:45:53;7.90;;;3.10;;
45338;SDS011;31071;51.478;5.710;2023-03-23T20:48:20;8.65;;;3.08;;
45338;SDS011;31071;51.478;5.710;2023-03-23T20:50:46;6.88;;;2.80;;
45338;SDS011;31071;51.478;5.710;2023-03-23T20:53:12;8.80;;;2.85;;
45338;SDS011;31071;51.478;5.710;2023-03-23T20:55:38;7.45;;;2.75;;
45338;SDS011;31071;51.478;5.710;2023-03-23T20:58:04;7.80;;;2.88;;
45338;SDS011;31071;51.478;5.710;2023-03-23T21:00:30;5.88;;;3.08;;
45338;SDS011;31071;51.478;5.710;2023-03-23T21:02:56;7.70;;;3.00;;
45338;SDS011;31071;51.478;5.710;2023-03-23T21:05:21;7.28;;;2.92;;
45338;SDS011;31071;51.478;5.710;2023-03-23T21:07:47;8.65;;;2.85;;
45338;SDS011;31071;51.478;5.710;2023-03-23T21:10:13;7.20;;;2.90;;
45338;SDS011;31071;51.478;5.710;2023-03-23T21:12:39;7.95;;;2.45;;
45338;SDS011;31071;51.478;5.710;2023-03-23T21:15:05;8.20;;;2.90;;
45338;SDS011;31071;51.478;5.710;2023-03-23T21:17:32;5.07;;;2.85;;
45338;SDS011;31071;51.478;5.710;2023-03-23T21:19:57;6.85;;;2.60;;
45338;SDS011;31071;51.478;5.710;2023-03-23T21:22:23;7.75;;;3.45;;
45338;SDS011;31071;51.478;5.710;2023-03-23T21:24:48;5.95;;;2.50;;
45338;SDS011;31071;51.478;5.710;2023-03-23T21:27:14;6.53;;;2.78;;
45338;SDS011;31071;51.478;5.710;2023-03-23T21:29:41;11.85;;;3.25;;
45338;SDS011;31071;51.478;5.710;2023-03-23T21:32:06;7.47;;;2.63;;
45338;SDS011;31071;51.478;5.710;2023-03-23T21:34:32;7.57;;;2.60;;
45338;SDS011;31071;51.478;5.710;2023-03-23T21:36:58;8.55;;;2.53;;
45338;SDS011;31071;51.478;5.710;2023-03-23T21:39:23;8.13;;;2.55;;
45338;SDS011;31071;51.478;5.710;2023-03-23T21:41:50;7.63;;;2.65;;
45338;SDS011;31071;51.478;5.710;2023-03-23T21:44:15;11.88;;;2.55;;
45338;SDS011;31071;51.478;5.710;2023-03-23T21:46:42;5.55;;;2.72;;
45338;SDS011;31071;51.478;5.710;2023-03-23T21:49:08;5.57;;;2.78;;
45338;SDS011;31071;51.478;5.710;2023-03-23T21:51:35;7.93;;;2.60;;
45338;SDS011;31071;51.478;5.710;2023-03-23T21:54:01;7.40;;;2.40;;
45338;SDS011;31071;51.478;5.710;2023-03-23T21:56:27;8.15;;;2.83;;
45338;SDS011;31071;51.478;5.710;2023-03-23T21:58:53;5.60;;;2.45;;
45338;SDS011;31071;51.478;5.710;2023-03-23T22:01:20;7.72;;;3.22;;
45338;SDS011;31071;51.478;5.710;2023-03-23T22:03:46;7.38;;;2.30;;
45338;SDS011;31071;51.478;5.710;2023-03-23T22:06:12;7.85;;;2.70;;
45338;SDS011;31071;51.478;5.710;2023-03-23T22:08:40;8.50;;;2.88;;
45338;SDS011;31071;51.478;5.710;2023-03-23T22:11:09;5.57;;;2.42;;
45338;SDS011;31071;51.478;5.710;2023-03-23T22:16:07;8.32;;;2.60;;
45338;SDS011;31071;51.478;5.710;2023-03-23T22:18:36;9.55;;;2.85;;
45338;SDS011;31071;51.478;5.710;2023-03-23T22:21:02;7.30;;;2.42;;
45338;SDS011;31071;51.478;5.710;2023-03-23T22:23:29;9.32;;;3.08;;
45338;SDS011;31071;51.478;5.710;2023-03-23T22:25:55;7.65;;;3.03;;
45338;SDS011;31071;51.478;5.710;2023-03-23T22:28:21;6.18;;;2.90;;
45338;SDS011;31071;51.478;5.710;2023-03-23T22:30:50;5.25;;;2.60;;
45338;SDS011;31071;51.478;5.710;2023-03-23T22:33:16;5.65;;;2.75;;
45338;SDS011;31071;51.478;5.710;2023-03-23T22:35:42;9.27;;;2.80;;
45338;SDS011;31071;51.478;5.710;2023-03-23T22:38:07;9.65;;;2.90;;
45338;SDS011;31071;51.478;5.710;2023-03-23T22:40:33;9.68;;;2.75;;
45338;SDS011;31071;51.478;5.710;2023-03-23T22:42:58;4.95;;;2.55;;
45338;SDS011;31071;51.478;5.710;2023-03-23T22:45:24;6.63;;;2.95;;
45338;SDS011;31071;51.478;5.710;2023-03-23T22:47:51;9.82;;;3.50;;
45338;SDS011;31071;51.478;5.710;2023-03-23T22:50:17;9.32;;;3.17;;
45338;SDS011;31071;51.478;5.710;2023-03-23T22:52:45;7.72;;;3.13;;
45338;SDS011;31071;51.478;5.710;2023-03-23T22:55:10;7.15;;;3.08;;
45338;SDS011;31071;51.478;5.710;2023-03-23T22:57:36;7.85;;;3.03;;
45338;SDS011;31071;51.478;5.710;2023-03-23T23:00:03;6.10;;;3.05;;